sensor_id;sensor_type;location;lat;lon;timestamp;pressure;altitude;pressure_sealevel;temperature;humidity
29169;BME280;16219;42.864;23.360;2023-05-23T00:00:56;95707.22;;;13.03;100.00
29169;BME280;16219;42.864;23.360;2023-05-23T00:03:24;95702.59;;;13.00;100.00
29169;BME280;16219;42.864;23.360;2023-05-23T00:05:51;95708.88;;;13.08;100.00
29169;BME280;16219;42.864;23.360;2023-05-23T00:08:18;95716.16;;;13.11;100.00
29169;BME280;16219;42.864;23.360;2023-05-23T00:10:45;95705.03;;;13.05;100.00
29169;BME280;16219;42.864;23.360;2023-05-23T00:13:13;95705.63;;;12.90;100.00
29169;BME280;16219;42.864;23.360;2023-05-23T00:15:41;95708.97;;;12.99;100.00
29169;BME280;16219;42.864;23.360;2023-05-23T00:18:08;95704.00;;;12.97;100.00
29169;BME280;16219;42.864;23.360;2023-05-23T00:20:36;95703.34;;;13.00;100.00
29169;BME280;16219;42.864;23.360;2023-05-23T00:23:05;95702.91;;;12.98;100.00
29169;BME280;16219;42.864;23.360;2023-05-23T00:25:33;95706.66;;;12.97;100.00
29169;BME280;16219;42.864;23.360;2023-05-23T00:28:00;95706.66;;;12.97;100.00
29169;BME280;16219;42.864;23.360;2023-05-23T00:30:30;95702.47;;;12.96;100.00
29169;BME280;16219;42.864;23.360;2023-05-23T00:32:57;95703.53;;;12.95;100.00
29169;BME280;16219;42.864;23.360;2023-05-23T00:35:25;95703.31;;;12.88;100.00
29169;BME280;16219;42.864;23.360;2023-05-23T00:37:52;95701.31;;;12.85;100.00
29169;BME280;16219;42.864;23.360;2023-05-23T00:40:20;95703.72;;;12.78;100.00
29169;BME280;16219;42.864;23.360;2023-05-23T00:42:48;95709.13;;;12.82;100.00
29169;BME280;16219;42.864;23.360;2023-05-23T00:45:17;95691.09;;;12.63;100.00
29169;BME280;16219;42.864;23.360;2023-05-23T00:47:46;95710.31;;;12.72;100.00
29169;BME280;16219;42.864;23.360;2023-05-23T00:50:14;95703.28;;;12.76;100.00
29169;BME280;16219;42.864;23.360;2023-05-23T00:52:42;95688.03;;;12.73;100.00
29169;BME280;16219;42.864;23.360;2023-05-23T00:55:10;95701.91;;;12.70;100.00
29169;BME280;16219;42.864;23.360;2023-05-23T00:57:38;95705.03;;;12.72;100.00
29169;BME280;16219;42.864;23.360;2023-05-23T01:00:06;95709.66;;;12.75;100.00
29169;BME280;16219;42.864;23.360;2023-05-23T01:02:37;95713.69;;;12.60;100.00
29169;BME280;16219;42.864;23.360;2023-05-23T01:05:10;95705.53;;;12.65;100.00
29169;BME280;16219;42.864;23.360;2023-05-23T01:07:39;95701.59;;;12.71;100.00
29169;BME280;16219;42.864;23.360;2023-05-23T01:10:07;95705.03;;;12.72;100.00
29169;BME280;16219;42.864;23.360;2023-05-23T01:12:40;95692.84;;;12.59;100.00
29169;BME280;16219;42.864;23.360;2023-05-23T01:15:13;95705.03;;;12.72;100.00
29169;BME280;16219;42.864;23.360;2023-05-23T01:17:48;95697.84;;;12.72;100.00
29169;BME280;16219;42.864;23.360;2023-05-23T01:20:21;95693.88;;;12.66;100.00
29169;BME280;16219;42.864;23.360;2023-05-23T01:22:58;95690.44;;;12.66;100.00
29169;BME280;16219;42.864;23.360;2023-05-23T01:25:37;95694.44;;;12.72;100.00
29169;BME280;16219;42.864;23.360;2023-05-23T01:28:13;95696.75;;;12.73;100.00
29169;BME280;16219;42.864;23.360;2023-05-23T01:30:44;95702.00;;;12.61;100.00
29169;BME280;16219;42.864;23.360;2023-05-23T01:33:13;95698.97;;;12.71;100.00
29169;BME280;16219;42.864;23.360;2023-05-23T01:35:42;95686.50;;;12.72;100.00
29169;BME280;16219;42.864;23.360;2023-05-23T01:38:09;95673.91;;;12.69;100.00
29169;BME280;16219;42.864;23.360;2023-05-23T01:40:38;95683.44;;;12.82;100.00
29169;BME280;16219;42.864;23.360;2023-05-23T01:43:05;95690.84;;;12.89;100.00
29169;BME280;16219;42.864;23.360;2023-05-23T01:45:34;95690.97;;;12.92;100.00
29169;BME280;16219;42.864;23.360;2023-05-23T01:48:02;95689.88;;;12.93;100.00
29169;BME280;16219;42.864;23.360;2023-05-23T01:50:32;95689.22;;;12.96;100.00
29169;BME280;16219;42.864;23.360;2023-05-23T01:53:00;95688.13;;;12.97;100.00
29169;BME280;16219;42.864;23.360;2023-05-23T01:55:27;95670.91;;;12.91;100.00
29169;BME280;16219;42.864;23.360;2023-05-23T01:57:56;95688.44;;;12.96;100.00
29169;BME280;16219;42.864;23.360;2023-05-23T02:00:24;95682.25;;;12.92;100.00
29169;BME280;16219;42.864;23.360;2023-05-23T02:02:53;95678.63;;;12.96;100.00
29169;BME280;16219;42.864;23.360;2023-05-23T02:05:20;95685.25;;;13.02;100.00
29169;BME280;16219;42.864;23.360;2023-05-23T02:07:47;95650.00;;;12.77;100.00
29169;BME280;16219;42.864;23.360;2023-05-23T02:10:16;95689.00;;;13.01;100.00
29169;BME280;16219;42.864;23.360;2023-05-23T02:12:43;95680.59;;;12.99;100.00
29169;BME280;16219;42.864;23.360;2023-05-23T02:15:10;95687.38;;;13.09;100.00
29169;BME280;16219;42.864;23.360;2023-05-23T02:17:37;95683.75;;;13.14;100.00
29169;BME280;16219;42.864;23.360;2023-05-23T02:20:08;95672.25;;;13.10;100.00
29169;BME280;16219;42.864;23.360;2023-05-23T02:22:35;95688.16;;;13.22;100.00
29169;BME280;16219;42.864;23.360;2023-05-23T02:25:03;95689.84;;;13.27;100.00
29169;BME280;16219;42.864;23.360;2023-05-23T02:27:31;95690.63;;;13.27;100.00
29169;BME280;16219;42.864;23.360;2023-05-23T02:29:58;95689.25;;;13.21;100.00
29169;BME280;16219;42.864;23.360;2023-05-23T02:32:25;95689.75;;;13.23;100.00
29169;BME280;16219;42.864;23.360;2023-05-23T02:34:52;95688.41;;;13.29;100.00
29169;BME280;16219;42.864;23.360;2023-05-23T02:37:20;95692.16;;;13.28;100.00
29169;BME280;16219;42.864;23.360;2023-05-23T02:39:47;95685.09;;;13.32;100.00
29169;BME280;16219;42.864;23.360;2023-05-23T02:42:14;95684.34;;;13.32;100.00
29169;BME280;16219;42.864;23.360;2023-05-23T02:44:42;95685.34;;;13.39;100.00
29169;BME280;16219;42.864;23.360;2023-05-23T02:47:09;95679.16;;;13.35;100.00
29169;BME280;16219;42.864;23.360;2023-05-23T02:49:36;95668.69;;;13.39;100.00
29169;BME280;16219;42.864;23.360;2023-05-23T02:52:05;95669.44;;;13.39;100.00
29169;BME280;16219;42.864;23.360;2023-05-23T02:54:33;95679.81;;;13.32;100.00
29169;BME280;16219;42.864;23.360;2023-05-23T02:57:01;95672.09;;;13.27;100.00
29169;BME280;16219;42.864;23.360;2023-05-23T02:59:31;95675.63;;;13.31;100.00
29169;BME280;16219;42.864;23.360;2023-05-23T03:01:58;95675.06;;;13.38;100.00
29169;BME280;16219;42.864;23.360;2023-05-23T03:04:26;95679.81;;;13.44;100.00
29169;BME280;16219;42.864;23.360;2023-05-23T03:06:54;95674.28;;;13.49;100.00
29169;BME280;16219;42.864;23.360;2023-05-23T03:09:21;95679.72;;;13.41;100.00
29169;BME280;16219;42.864;23.360;2023-05-23T03:11:49;95680.03;;;13.39;100.00
29169;BME280;16219;42.864;23.360;2023-05-23T03:14:16;95670.72;;;13.21;100.00
29169;BME280;16219;42.864;23.360;2023-05-23T03:16:43;95675.16;;;13.29;100.00
29169;BME280;16219;42.864;23.360;2023-05-23T03:19:11;95673.34;;;13.21;100.00
29169;BME280;16219;42.864;23.360;2023-05-23T03:21:37;95674.78;;;13.06;100.00
29169;BME280;16219;42.864;23.360;2023-05-23T03:24:06;95660.63;;;12.90;100.00
29169;BME280;16219;42.864;23.360;2023-05-23T03:26:33;95673.00;;;12.98;100.00
29169;BME280;16219;42.864;23.360;2023-05-23T03:29:02;95676.28;;;12.95;100.00
29169;BME280;16219;42.864;23.360;2023-05-23T03:31:29;95680.16;;;12.97;100.00
29169;BME280;16219;42.864;23.360;2023-05-23T03:33:56;95686.56;;;12.96;100.00
29169;BME280;16219;42.864;23.360;2023-05-23T03:36:23;95688.31;;;12.92;100.00
29169;BME280;16219;42.864;23.360;2023-05-23T03:38:53;95690.50;;;12.90;100.00
29169;BME280;16219;42.864;23.360;2023-05-23T03:41:20;95699.56;;;12.89;100.00
29169;BME280;16219;42.864;23.360;2023-05-23T03:43:47;95687.81;;;12.78;100.00
29169;BME280;16219;42.864;23.360;2023-05-23T03:46:15;95705.38;;;12.83;100.00
29169;BME280;16219;42.864;23.360;2023-05-23T03:48:42;95693.25;;;12.82;100.00
29169;BME280;16219;42.864;23.360;2023-05-23T03:51:09;95697.91;;;12.85;100.00
29169;BME280;16219;42.864;23.360;2023-05-23T03:53:38;95698.78;;;12.89;100.00
29169;BME280;16219;42.864;23.360;2023-05-23T03:56:05;95660.66;;;12.69;100.00
29169;BME280;16219;42.864;23.360;2023-05-23T03:58:32;95703.53;;;12.95;100.00
29169;BME280;16219;42.864;23.360;2023-05-23T04:01:05;95706.31;;;12.99;100.00
29169;BME280;16219;42.864;23.360;2023-05-23T04:03:35;95698.72;;;12.97;100.00
29169;BME280;16219;42.864;23.360;2023-05-23T04:06:03;95702.91;;;12.98;100.00
29169;BME280;16219;42.864;23.360;2023-05-23T04:08:31;95706.22;;;13.08;100.00
29169;BME280;16219;42.864;23.360;2023-05-23T04:11:00;95701.16;;;13.15;100.00
29169;BME280;16219;42.864;23.360;2023-05-23T04:13:30;95704.94;;;13.14;100.00
29169;BME280;16219;42.864;23.360;2023-05-23T04:15:58;95698.97;;;13.17;100.00
29169;BME280;16219;42.864;23.360;2023-05-23T04:18:26;95700.06;;;13.16;100.00
29169;BME280;16219;42.864;23.360;2023-05-23T04:20:56;95709.50;;;13.25;100.00
29169;BME280;16219;42.864;23.360;2023-05-23T04:23:23;95703.88;;;13.27;100.00
29169;BME280;16219;42.864;23.360;2023-05-23T04:25:52;95700.22;;;13.32;100.00
29169;BME280;16219;42.864;23.360;2023-05-23T04:28:31;95705.22;;;13.45;100.00
29169;BME280;16219;42.864;23.360;2023-05-23T04:30:58;95694.41;;;13.38;100.00
29169;BME280;16219;42.864;23.360;2023-05-23T04:33:30;95710.41;;;13.42;100.00
29169;BME280;16219;42.864;23.360;2023-05-23T04:36:00;95710.09;;;13.43;100.00
29169;BME280;16219;42.864;23.360;2023-05-23T04:38:27;95709.41;;;13.46;100.00
29169;BME280;16219;42.864;23.360;2023-05-23T04:40:56;95712.94;;;13.63;100.00
29169;BME280;16219;42.864;23.360;2023-05-23T04:43:42;95712.75;;;13.68;100.00
29169;BME280;16219;42.864;23.360;2023-05-23T04:46:15;95708.31;;;13.84;100.00
29169;BME280;16219;42.864;23.360;2023-05-23T04:48:46;95711.84;;;14.00;100.00
29169;BME280;16219;42.864;23.360;2023-05-23T04:51:14;95714.25;;;14.18;100.00
29169;BME280;16219;42.864;23.360;2023-05-23T04:53:50;95714.94;;;14.15;100.00
29169;BME280;16219;42.864;23.360;2023-05-23T04:56:17;95711.16;;;14.16;100.00
29169;BME280;16219;42.864;23.360;2023-05-23T04:58:45;95716.75;;;14.26;100.00
29169;BME280;16219;42.864;23.360;2023-05-23T05:01:14;95712.69;;;14.69;100.00
29169;BME280;16219;42.864;23.360;2023-05-23T05:03:41;95713.53;;;15.02;100.00
29169;BME280;16219;42.864;23.360;2023-05-23T05:06:08;95715.75;;;15.43;100.00
29169;BME280;16219;42.864;23.360;2023-05-23T05:08:45;95706.38;;;15.49;100.00
29169;BME280;16219;42.864;23.360;2023-05-23T05:11:22;95727.69;;;15.81;100.00
29169;BME280;16219;42.864;23.360;2023-05-23T05:13:49;95734.56;;;16.53;100.00
29169;BME280;16219;42.864;23.360;2023-05-23T05:16:16;95715.75;;;16.65;100.00
29169;BME280;16219;42.864;23.360;2023-05-23T05:18:43;95737.69;;;16.39;100.00
29169;BME280;16219;42.864;23.360;2023-05-23T05:21:10;95737.69;;;15.88;100.00
29169;BME280;16219;42.864;23.360;2023-05-23T05:23:37;95716.06;;;15.58;100.00
29169;BME280;16219;42.864;23.360;2023-05-23T05:26:08;95740.28;;;15.53;100.00
29169;BME280;16219;42.864;23.360;2023-05-23T05:28:36;95737.34;;;15.42;100.00
29169;BME280;16219;42.864;23.360;2023-05-23T05:31:04;95741.13;;;15.41;100.00
29169;BME280;16219;42.864;23.360;2023-05-23T05:33:33;95743.13;;;15.16;100.00
29169;BME280;16219;42.864;23.360;2023-05-23T05:36:11;95732.50;;;15.00;100.00
29169;BME280;16219;42.864;23.360;2023-05-23T05:38:39;95743.88;;;15.00;100.00
29169;BME280;16219;42.864;23.360;2023-05-23T05:41:08;95743.78;;;14.97;100.00
29169;BME280;16219;42.864;23.360;2023-05-23T05:43:39;95741.03;;;14.93;100.00
29169;BME280;16219;42.864;23.360;2023-05-23T05:46:07;95724.97;;;14.74;100.00
29169;BME280;16219;42.864;23.360;2023-05-23T05:48:35;95734.22;;;14.80;100.00
29169;BME280;16219;42.864;23.360;2023-05-23T05:51:06;95725.69;;;14.87;100.00
29169;BME280;16219;42.864;23.360;2023-05-23T05:53:34;95752.47;;;15.10;100.00
29169;BME280;16219;42.864;23.360;2023-05-23T05:56:01;95741.34;;;15.20;100.00
29169;BME280;16219;42.864;23.360;2023-05-23T05:58:32;95746.44;;;15.25;100.00
29169;BME280;16219;42.864;23.360;2023-05-23T06:01:02;95756.25;;;15.24;100.00
29169;BME280;16219;42.864;23.360;2023-05-23T06:03:30;95747.66;;;15.43;100.00
29169;BME280;16219;42.864;23.360;2023-05-23T06:05:57;95749.09;;;15.57;100.00
29169;BME280;16219;42.864;23.360;2023-05-23T06:08:25;95747.44;;;15.80;100.00
29169;BME280;16219;42.864;23.360;2023-05-23T06:10:52;95748.53;;;15.95;100.00
29169;BME280;16219;42.864;23.360;2023-05-23T06:13:19;95752.44;;;16.01;100.00
29169;BME280;16219;42.864;23.360;2023-05-23T06:15:53;95754.31;;;16.16;100.00
29169;BME280;16219;42.864;23.360;2023-05-23T06:18:20;95755.16;;;16.36;100.00
29169;BME280;16219;42.864;23.360;2023-05-23T06:20:49;95756.16;;;16.67;100.00
29169;BME280;16219;42.864;23.360;2023-05-23T06:23:17;95746.66;;;17.05;100.00
29169;BME280;16219;42.864;23.360;2023-05-23T06:25:46;95755.22;;;17.37;100.00
29169;BME280;16219;42.864;23.360;2023-05-23T06:28:13;95759.97;;;17.47;100.00
29169;BME280;16219;42.864;23.360;2023-05-23T06:30:40;95756.50;;;17.23;100.00
29169;BME280;16219;42.864;23.360;2023-05-23T06:33:09;95741.94;;;17.17;100.00
29169;BME280;16219;42.864;23.360;2023-05-23T06:35:36;95745.94;;;17.08;100.00
29169;BME280;16219;42.864;23.360;2023-05-23T06:38:03;95737.78;;;17.20;100.00
29169;BME280;16219;42.864;23.360;2023-05-23T06:40:30;95744.38;;;17.26;100.00
29169;BME280;16219;42.864;23.360;2023-05-23T06:42:58;95732.66;;;17.11;100.00
29169;BME280;16219;42.864;23.360;2023-05-23T06:45:45;95735.38;;;17.34;100.00
29169;BME280;16219;42.864;23.360;2023-05-23T06:48:14;95725.88;;;17.60;100.00
29169;BME280;16219;42.864;23.360;2023-05-23T06:50:43;95731.47;;;17.74;100.00
29169;BME280;16219;42.864;23.360;2023-05-23T06:53:11;95726.56;;;17.76;100.00
29169;BME280;16219;42.864;23.360;2023-05-23T06:55:40;95733.34;;;17.96;100.00
29169;BME280;16219;42.864;23.360;2023-05-23T06:58:10;95702.56;;;18.03;100.00
29169;BME280;16219;42.864;23.360;2023-05-23T07:00:37;95737.19;;;18.52;100.00
29169;BME280;16219;42.864;23.360;2023-05-23T07:03:38;95734.44;;;18.75;100.00
29169;BME280;16219;42.864;23.360;2023-05-23T07:06:08;95725.28;;;18.76;100.00
29169;BME280;16219;42.864;23.360;2023-05-23T07:08:36;95729.91;;;18.79;100.00
29169;BME280;16219;42.864;23.360;2023-05-23T07:11:04;95726.22;;;18.61;100.00
29169;BME280;16219;42.864;23.360;2023-05-23T07:13:40;95732.84;;;18.70;100.00
29169;BME280;16219;42.864;23.360;2023-05-23T07:16:12;95729.72;;;18.65;100.00
29169;BME280;16219;42.864;23.360;2023-05-23T07:18:52;95721.91;;;18.22;100.00
29169;BME280;16219;42.864;23.360;2023-05-23T07:21:19;95716.28;;;17.78;100.00
29169;BME280;16219;42.864;23.360;2023-05-23T07:23:47;95708.03;;;17.64;100.00
29169;BME280;16219;42.864;23.360;2023-05-23T07:26:14;95717.97;;;17.67;100.00
29169;BME280;16219;42.864;23.360;2023-05-23T07:28:49;95701.84;;;17.33;100.00
29169;BME280;16219;42.864;23.360;2023-05-23T07:31:17;95733.25;;;17.01;100.00
29169;BME280;16219;42.864;23.360;2023-05-23T07:33:44;95711.63;;;17.06;100.00
29169;BME280;16219;42.864;23.360;2023-05-23T07:36:19;95701.38;;;17.51;100.00
29169;BME280;16219;42.864;23.360;2023-05-23T07:38:47;95719.66;;;17.75;100.00
29169;BME280;16219;42.864;23.360;2023-05-23T07:41:14;95711.88;;;17.66;100.00
29169;BME280;16219;42.864;23.360;2023-05-23T07:43:41;95709.28;;;17.70;100.00
29169;BME280;16219;42.864;23.360;2023-05-23T07:46:09;95712.50;;;17.79;100.00
29169;BME280;16219;42.864;23.360;2023-05-23T07:48:37;95716.28;;;18.01;100.00
29169;BME280;16219;42.864;23.360;2023-05-23T07:51:04;95713.25;;;18.33;100.00
29169;BME280;16219;42.864;23.360;2023-05-23T07:53:33;95706.13;;;18.40;100.00
29169;BME280;16219;42.864;23.360;2023-05-23T07:56:06;95704.97;;;18.71;100.00
29169;BME280;16219;42.864;23.360;2023-05-23T07:58:37;95696.34;;;18.85;100.00
29169;BME280;16219;42.864;23.360;2023-05-23T08:01:04;95702.69;;;19.07;100.00
29169;BME280;16219;42.864;23.360;2023-05-23T08:03:51;95705.41;;;19.11;100.00
29169;BME280;16219;42.864;23.360;2023-05-23T08:06:28;95709.97;;;19.10;100.00
29169;BME280;16219;42.864;23.360;2023-05-23T08:09:00;95697.38;;;19.11;100.00
29169;BME280;16219;42.864;23.360;2023-05-23T08:11:30;95708.31;;;18.98;100.00
29169;BME280;16219;42.864;23.360;2023-05-23T08:13:59;95704.72;;;19.17;100.00
29169;BME280;16219;42.864;23.360;2023-05-23T08:16:33;95695.44;;;19.48;100.00
29169;BME280;16219;42.864;23.360;2023-05-23T08:19:00;95702.56;;;19.78;100.00
29169;BME280;16219;42.864;23.360;2023-05-23T08:21:27;95688.91;;;19.94;100.00
29169;BME280;16219;42.864;23.360;2023-05-23T08:23:54;95697.28;;;19.85;100.00
29169;BME280;16219;42.864;23.360;2023-05-23T08:26:23;95699.63;;;19.94;100.00
29169;BME280;16219;42.864;23.360;2023-05-23T08:28:51;95685.13;;;19.98;100.00
29169;BME280;16219;42.864;23.360;2023-05-23T08:31:19;95700.88;;;20.11;100.00
29169;BME280;16219;42.864;23.360;2023-05-23T08:33:46;95692.91;;;20.18;100.00
29169;BME280;16219;42.864;23.360;2023-05-23T08:36:13;95694.84;;;20.28;100.00
29169;BME280;16219;42.864;23.360;2023-05-23T08:38:45;95686.41;;;20.26;100.00
29169;BME280;16219;42.864;23.360;2023-05-23T08:41:34;95694.31;;;19.97;100.00
29169;BME280;16219;42.864;23.360;2023-05-23T08:44:06;95688.50;;;19.88;100.00
29169;BME280;16219;42.864;23.360;2023-05-23T08:46:43;95679.69;;;19.88;100.00
29169;BME280;16219;42.864;23.360;2023-05-23T08:49:12;95683.56;;;19.94;100.00
29169;BME280;16219;42.864;23.360;2023-05-23T08:51:42;95682.53;;;20.13;100.00
29169;BME280;16219;42.864;23.360;2023-05-23T08:54:31;95664.28;;;20.36;100.00
29169;BME280;16219;42.864;23.360;2023-05-23T08:57:01;95681.63;;;20.57;100.00
29169;BME280;16219;42.864;23.360;2023-05-23T08:59:30;95686.34;;;20.92;100.00
29169;BME280;16219;42.864;23.360;2023-05-23T09:01:59;95683.31;;;21.15;100.00
29169;BME280;16219;42.864;23.360;2023-05-23T09:04:28;95680.69;;;21.43;100.00
29169;BME280;16219;42.864;23.360;2023-05-23T09:07:00;95678.78;;;21.44;100.00
29169;BME280;16219;42.864;23.360;2023-05-23T09:09:29;95668.72;;;21.05;100.00
29169;BME280;16219;42.864;23.360;2023-05-23T09:11:58;95670.28;;;21.10;100.00
29169;BME280;16219;42.864;23.360;2023-05-23T09:14:28;95668.81;;;21.34;100.00
29169;BME280;16219;42.864;23.360;2023-05-23T09:17:00;95657.69;;;21.50;100.00
29169;BME280;16219;42.864;23.360;2023-05-23T09:19:27;95664.56;;;21.61;100.00
29169;BME280;16219;42.864;23.360;2023-05-23T09:22:02;95660.34;;;21.85;100.00
29169;BME280;16219;42.864;23.360;2023-05-23T09:24:38;95661.09;;;22.18;100.00
29169;BME280;16219;42.864;23.360;2023-05-23T09:27:08;95661.38;;;22.45;100.00
29169;BME280;16219;42.864;23.360;2023-05-23T09:29:39;95665.09;;;22.73;100.00
29169;BME280;16219;42.864;23.360;2023-05-23T09:32:10;95649.31;;;22.78;99.04
29169;BME280;16219;42.864;23.360;2023-05-23T09:34:40;95647.72;;;22.95;88.56
29169;BME280;16219;42.864;23.360;2023-05-23T09:37:10;95633.78;;;23.11;93.52
29169;BME280;16219;42.864;23.360;2023-05-23T09:39:39;95637.94;;;23.19;85.32
29169;BME280;16219;42.864;23.360;2023-05-23T09:42:06;95642.53;;;23.22;87.79
29169;BME280;16219;42.864;23.360;2023-05-23T09:44:41;95629.69;;;23.40;82.62
29169;BME280;16219;42.864;23.360;2023-05-23T09:47:09;95639.97;;;23.53;91.37
29169;BME280;16219;42.864;23.360;2023-05-23T09:49:37;95639.56;;;23.58;83.42
29169;BME280;16219;42.864;23.360;2023-05-23T09:52:05;95639.13;;;23.66;81.43
29169;BME280;16219;42.864;23.360;2023-05-23T09:54:33;95634.03;;;23.76;88.98
29169;BME280;16219;42.864;23.360;2023-05-23T09:57:01;95624.34;;;23.82;87.46
29169;BME280;16219;42.864;23.360;2023-05-23T09:59:31;95620.91;;;23.81;73.52
29169;BME280;16219;42.864;23.360;2023-05-23T10:02:05;95618.44;;;23.53;70.83
29169;BME280;16219;42.864;23.360;2023-05-23T10:04:33;95619.72;;;23.41;76.77
29169;BME280;16219;42.864;23.360;2023-05-23T10:07:05;95608.75;;;23.62;83.60
29169;BME280;16219;42.864;23.360;2023-05-23T10:09:37;95616.25;;;23.85;88.44
29169;BME280;16219;42.864;23.360;2023-05-23T10:12:41;95605.16;;;24.14;85.58
29169;BME280;16219;42.864;23.360;2023-05-23T10:15:12;95608.75;;;24.38;78.87
29169;BME280;16219;42.864;23.360;2023-05-23T10:17:58;95612.31;;;24.62;81.71
29169;BME280;16219;42.864;23.360;2023-05-23T10:20:29;95604.06;;;24.73;70.52
29169;BME280;16219;42.864;23.360;2023-05-23T10:22:58;95597.63;;;24.63;66.34
29169;BME280;16219;42.864;23.360;2023-05-23T10:25:26;95585.63;;;24.67;79.08
29169;BME280;16219;42.864;23.360;2023-05-23T10:27:54;95595.69;;;24.94;75.36
29169;BME280;16219;42.864;23.360;2023-05-23T10:30:24;95593.19;;;25.07;74.38
29169;BME280;16219;42.864;23.360;2023-05-23T10:32:53;95580.03;;;25.09;75.49
29169;BME280;16219;42.864;23.360;2023-05-23T10:35:24;95586.00;;;25.24;71.92
29169;BME280;16219;42.864;23.360;2023-05-23T10:38:00;95587.41;;;25.32;67.00
29169;BME280;16219;42.864;23.360;2023-05-23T10:40:36;95587.81;;;25.30;61.28
29169;BME280;16219;42.864;23.360;2023-05-23T10:43:17;95575.41;;;24.82;65.47
29169;BME280;16219;42.864;23.360;2023-05-23T10:45:46;95552.44;;;24.43;64.83
29169;BME280;16219;42.864;23.360;2023-05-23T10:48:21;95583.72;;;24.95;61.91
29169;BME280;16219;42.864;23.360;2023-05-23T10:51:02;95571.25;;;24.78;49.06
29169;BME280;16219;42.864;23.360;2023-05-23T10:53:30;95567.22;;;24.89;53.57
29169;BME280;16219;42.864;23.360;2023-05-23T10:55:58;95567.63;;;25.15;54.92
29169;BME280;16219;42.864;23.360;2023-05-23T10:58:28;95569.97;;;25.36;57.54
29169;BME280;16219;42.864;23.360;2023-05-23T11:00:59;95565.38;;;25.10;57.04
29169;BME280;16219;42.864;23.360;2023-05-23T11:03:33;95571.94;;;25.09;62.28
29169;BME280;16219;42.864;23.360;2023-05-23T11:06:01;95571.91;;;24.85;59.68
29169;BME280;16219;42.864;23.360;2023-05-23T11:08:36;95553.81;;;24.82;59.80
29169;BME280;16219;42.864;23.360;2023-05-23T11:11:04;95563.03;;;25.12;74.57
29169;BME280;16219;42.864;23.360;2023-05-23T11:13:55;95570.22;;;24.95;61.94
29169;BME280;16219;42.864;23.360;2023-05-23T11:16:27;95559.84;;;24.36;56.45
29169;BME280;16219;42.864;23.360;2023-05-23T11:19:23;95564.09;;;24.33;59.18
29169;BME280;16219;42.864;23.360;2023-05-23T11:21:54;95549.34;;;24.45;55.74
29169;BME280;16219;42.864;23.360;2023-05-23T11:24:22;95554.56;;;24.25;50.96
29169;BME280;16219;42.864;23.360;2023-05-23T11:26:53;95547.88;;;24.06;51.84
29169;BME280;16219;42.864;23.360;2023-05-23T11:29:25;95545.16;;;24.10;53.48
29169;BME280;16219;42.864;23.360;2023-05-23T11:31:53;95544.88;;;24.01;55.10
29169;BME280;16219;42.864;23.360;2023-05-23T11:34:24;95544.50;;;23.99;53.30
29169;BME280;16219;42.864;23.360;2023-05-23T11:36:53;95542.03;;;24.11;54.40
29169;BME280;16219;42.864;23.360;2023-05-23T11:39:21;95542.44;;;24.10;53.00
29169;BME280;16219;42.864;23.360;2023-05-23T11:41:58;95543.44;;;23.92;53.61
29169;BME280;16219;42.864;23.360;2023-05-23T11:44:25;95540.03;;;23.85;50.93
29169;BME280;16219;42.864;23.360;2023-05-23T11:47:00;95537.13;;;24.03;53.51
29169;BME280;16219;42.864;23.360;2023-05-23T11:49:29;95535.66;;;24.29;51.11
29169;BME280;16219;42.864;23.360;2023-05-23T11:51:57;95527.56;;;24.59;53.39
29169;BME280;16219;42.864;23.360;2023-05-23T11:54:25;95518.69;;;24.86;51.71
29169;BME280;16219;42.864;23.360;2023-05-23T11:56:53;95522.28;;;25.03;48.47
29169;BME280;16219;42.864;23.360;2023-05-23T11:59:21;95497.88;;;25.10;45.39
29169;BME280;16219;42.864;23.360;2023-05-23T12:01:48;95529.91;;;25.08;48.10
29169;BME280;16219;42.864;23.360;2023-05-23T12:04:15;95529.94;;;24.54;51.67
29169;BME280;16219;42.864;23.360;2023-05-23T12:06:45;95527.25;;;24.23;51.50
29169;BME280;16219;42.864;23.360;2023-05-23T12:09:12;95524.44;;;24.03;50.26
29169;BME280;16219;42.864;23.360;2023-05-23T12:11:40;95520.84;;;24.13;49.08
29169;BME280;16219;42.864;23.360;2023-05-23T12:14:11;95519.38;;;24.36;50.45
29169;BME280;16219;42.864;23.360;2023-05-23T12:16:42;95511.38;;;24.59;49.55
29169;BME280;16219;42.864;23.360;2023-05-23T12:19:10;95495.56;;;24.85;47.08
29169;BME280;16219;42.864;23.360;2023-05-23T12:21:42;95502.84;;;25.15;50.07
29169;BME280;16219;42.864;23.360;2023-05-23T12:24:14;95507.47;;;25.58;48.70
29169;BME280;16219;42.864;23.360;2023-05-23T12:26:46;95497.69;;;25.64;48.26
29169;BME280;16219;42.864;23.360;2023-05-23T12:29:13;95504.44;;;25.76;44.46
29169;BME280;16219;42.864;23.360;2023-05-23T12:31:41;95505.38;;;25.46;44.82
29169;BME280;16219;42.864;23.360;2023-05-23T12:34:10;95507.47;;;24.87;46.46
29169;BME280;16219;42.864;23.360;2023-05-23T12:36:37;95505.44;;;24.44;46.15
29169;BME280;16219;42.864;23.360;2023-05-23T12:39:05;95505.75;;;24.19;48.44
29169;BME280;16219;42.864;23.360;2023-05-23T12:41:34;95500.03;;;24.44;49.33
29169;BME280;16219;42.864;23.360;2023-05-23T12:44:02;95494.22;;;24.73;49.16
29169;BME280;16219;42.864;23.360;2023-05-23T12:46:29;95486.66;;;24.88;50.49
29169;BME280;16219;42.864;23.360;2023-05-23T12:48:57;95473.59;;;25.10;49.82
29169;BME280;16219;42.864;23.360;2023-05-23T12:51:24;95495.41;;;25.42;51.10
29169;BME280;16219;42.864;23.360;2023-05-23T12:53:51;95484.81;;;25.32;46.02
29169;BME280;16219;42.864;23.360;2023-05-23T12:56:20;95475.19;;;25.51;48.84